Time;durP1;ratioP1;P1;durP2;ratioP2;P2;SDS_P1;SDS_P2;PMS_P1;PMS_P2;Temp;Humidity;BMP_temperature;BMP_pressure;BME280_temperature;BME280_humidity;BME280_pressure;Samples;Min_cycle;Max_cycle;Signal;HPM_P1;HPM_P2
2023/11/25 00:00:37;;;;;;;2.05;0.65;;;;;;;2.47;100.00;99640.78;5061161;28;20128;-69
2023/11/25 00:03:05;;;;;;;3.50;0.60;;;;;;;2.50;100.00;99649.44;5067930;28;20048;-69
2023/11/25 00:05:35;;;;;;;7.28;0.88;;;;;;;2.40;100.00;99649.66;5067381;28;20420;-67
2023/11/25 00:08:04;;;;;;;1.75;0.57;;;;;;;2.39;100.00;99642.72;5067808;28;20048;-69
2023/11/25 00:10:34;;;;;;;4.47;0.70;;;;;;;2.43;100.00;99660.03;5064596;28;20059;-69
2023/11/25 00:13:03;;;;;;;3.05;0.88;;;;;;;2.40;100.00;99643.56;5069608;28;20040;-68
2023/11/25 00:15:32;;;;;;;1.75;0.80;;;;;;;2.40;100.00;99646.19;5075184;28;20420;-68
2023/11/25 00:18:03;;;;;;;3.75;1.10;;;;;;;2.33;100.00;99649.88;5070532;28;20471;-67
2023/11/25 00:20:32;;;;;;;3.97;1.02;;;;;;;2.38;100.00;99655.81;5064747;28;20071;-68
2023/11/25 00:23:01;;;;;;;2.08;0.65;;;;;;;2.37;100.00;99661.94;5055623;28;20048;-68
2023/11/25 00:25:29;;;;;;;3.58;0.70;;;;;;;2.27;100.00;99647.41;5106838;27;20048;-71
2023/11/25 00:27:59;;;;;;;4.82;0.88;;;;;;;2.35;100.00;99674.22;5070166;28;20052;-70
2023/11/25 00:30:30;;;;;;;1.52;0.60;;;;;;;2.40;100.00;99672.31;5061271;28;20095;-68
2023/11/25 00:32:59;;;;;;;5.15;1.15;;;;;;;2.38;100.00;99672.34;5066601;28;20062;-70
2023/11/25 00:35:27;;;;;;;2.92;0.80;;;;;;;2.26;100.00;99657.00;5070903;28;20041;-69
2023/11/25 00:37:55;;;;;;;5.18;1.23;;;;;;;2.29;100.00;99667.38;5068781;28;20483;-70
2023/11/25 00:40:25;;;;;;;5.03;0.85;;;;;;;2.30;100.00;99683.91;5064324;28;20486;-68
2023/11/25 00:42:54;;;;;;;3.67;0.93;;;;;;;2.34;100.00;99683.78;5070010;28;20124;-70
2023/11/25 00:45:26;;;;;;;3.85;0.88;;;;;;;2.39;100.00;99686.28;5071278;28;20072;-69
2023/11/25 00:47:56;;;;;;;2.47;1.10;;;;;;;2.37;100.00;99694.16;5054431;28;20051;-68
2023/11/25 00:50:25;;;;;;;3.17;0.77;;;;;;;2.35;100.00;99692.50;5067080;28;20508;-67
2023/11/25 00:52:55;;;;;;;5.13;1.10;;;;;;;2.39;100.00;99708.03;5067355;28;20066;-69
2023/11/25 00:55:23;;;;;;;6.10;1.00;;;;;;;2.40;100.00;99711.50;5054204;28;20048;-68
2023/11/25 00:57:51;;;;;;;6.22;1.20;;;;;;;2.42;100.00;99718.41;5087835;28;20056;-69
2023/11/25 01:00:26;;;;;;;4.00;0.80;;;;;;;2.34;100.00;99717.75;5064088;28;20048;-69
2023/11/25 01:02:57;;;;;;;4.72;1.02;;;;;;;2.38;100.00;99718.53;5065574;28;20064;-69
2023/11/25 01:05:25;;;;;;;9.88;1.02;;;;;;;2.35;100.00;99721.22;5052349;28;20101;-68
2023/11/25 01:07:53;;;;;;;3.20;0.90;;;;;;;2.25;100.00;99719.72;5073638;28;20513;-67
2023/11/25 01:10:21;;;;;;;7.72;1.33;;;;;;;2.26;100.00;99726.66;5061815;28;20519;-68
2023/11/25 01:12:51;;;;;;;9.30;1.70;;;;;;;2.24;100.00;99729.31;5065101;28;20053;-68
2023/11/25 01:15:19;;;;;;;3.97;1.20;;;;;;;2.26;100.00;99726.66;5069339;28;20094;-69
2023/11/25 01:17:48;;;;;;;4.22;1.20;;;;;;;2.29;100.00;99735.28;5080432;28;20049;-68
2023/11/25 01:20:17;;;;;;;4.38;1.20;;;;;;;2.36;100.00;99736.84;5065022;28;20074;-68
2023/11/25 01:22:47;;;;;;;8.63;1.57;;;;;;;2.42;100.00;99735.84;5063335;28;20090;-69
2023/11/25 01:25:16;;;;;;;8.00;1.55;;;;;;;2.40;100.00;99748.94;5064983;28;20067;-68
2023/11/25 01:27:44;;;;;;;8.25;1.48;;;;;;;2.38;100.00;99749.88;5067564;28;20511;-69
2023/11/25 01:30:13;;;;;;;3.97;1.60;;;;;;;2.35;100.00;99748.22;5065839;28;20057;-68
2023/11/25 01:32:41;;;;;;;5.25;1.38;;;;;;;2.32;100.00;99755.25;5060918;28;20397;-67
2023/11/25 01:35:09;;;;;;;4.63;1.10;;;;;;;2.27;100.00;99755.38;5069332;28;20044;-69
2023/11/25 01:37:39;;;;;;;6.43;1.20;;;;;;;2.24;100.00;99765.88;5069607;28;20131;-69
2023/11/25 01:40:11;;;;;;;6.82;1.67;;;;;;;2.29;100.00;99765.78;5068696;28;20119;-67
2023/11/25 01:42:42;;;;;;;5.07;1.50;;;;;;;2.26;100.00;99781.53;5062935;28;20060;-68
2023/11/25 01:45:12;;;;;;;7.68;1.48;;;;;;;2.22;100.00;99767.66;5072402;28;20158;-68
2023/11/25 01:47:40;;;;;;;8.30;1.20;;;;;;;2.22;100.00;99777.25;5056558;28;20048;-68
2023/11/25 01:50:14;;;;;;;4.70;1.15;;;;;;;2.22;100.00;99778.09;5068670;28;20107;-68
2023/11/25 01:52:44;;;;;;;6.95;1.40;;;;;;;2.18;100.00;99781.72;5061155;28;20461;-70
2023/11/25 01:55:14;;;;;;;7.87;1.43;;;;;;;2.08;100.00;99773.19;5055168;28;20056;-68
2023/11/25 01:57:44;;;;;;;6.65;1.40;;;;;;;2.20;100.00;99790.38;5056622;28;20489;-69
2023/11/25 02:00:15;;;;;;;5.47;1.67;;;;;;;2.21;100.00;99793.81;5068316;28;20044;-68
2023/11/25 02:02:49;;;;;;;;;;;;;;;2.25;100.00;99798.94;5079459;28;20052;-68
2023/11/25 02:05:21;;;;;;;7.40;1.30;;;;;;;2.18;100.00;99791.31;5070895;28;19972;-69
2023/11/25 02:07:51;;;;;;;4.57;1.65;;;;;;;2.15;100.00;99805.28;5073313;28;20066;-68
2023/11/25 02:10:20;;;;;;;3.15;1.20;;;;;;;2.15;100.00;99807.03;5064580;28;20512;-68
2023/11/25 02:12:48;;;;;;;7.35;1.58;;;;;;;2.09;100.00;99806.25;5060279;28;20090;-69
2023/11/25 02:15:18;;;;;;;4.78;1.50;;;;;;;2.12;100.00;99818.41;5087285;28;20043;-69
2023/11/25 02:17:47;;;;;;;5.45;1.58;;;;;;;2.05;100.00;99827.25;5079961;28;20048;-69
2023/11/25 02:20:16;;;;;;;6.60;1.50;;;;;;;1.93;100.00;99802.28;5068080;28;20044;-68
2023/11/25 02:22:58;;;;;;;7.40;1.35;;;;;;;1.99;100.00;99832.63;5051665;28;20108;-68
2023/11/25 02:25:27;;;;;;;8.30;1.75;;;;;;;2.05;100.00;99832.47;5070279;28;20048;-68
2023/11/25 02:27:56;;;;;;;6.30;1.58;;;;;;;2.04;100.00;99825.56;5068469;28;20534;-68
2023/11/25 02:30:24;;;;;;;4.80;1.50;;;;;;;2.06;100.00;99819.38;5053133;28;20055;-69
2023/11/25 02:32:53;;;;;;;6.45;1.40;;;;;;;1.98;100.00;99823.06;5066880;28;20135;-68
2023/11/25 02:35:21;;;;;;;5.00;1.63;;;;;;;2.00;100.00;99827.38;5072010;28;20067;-69
2023/11/25 02:37:52;;;;;;;6.75;1.80;;;;;;;2.01;100.00;99841.28;5070776;28;20576;-67
2023/11/25 02:40:20;;;;;;;;;;;;;;;2.01;100.00;99849.97;5072302;28;20401;-67
2023/11/25 02:42:48;;;;;;;5.97;1.63;;;;;;;2.00;100.00;99842.19;5068706;28;19924;-67
2023/11/25 02:45:19;;;;;;;9.45;1.90;;;;;;;1.97;100.00;99853.53;5070825;28;20412;-68
2023/11/25 02:47:48;;;;;;;6.03;1.48;;;;;;;2.00;100.00;99850.00;5072081;28;20048;-68
2023/11/25 02:50:17;;;;;;;6.13;1.88;;;;;;;1.98;100.00;99849.19;5052074;28;20086;-69
2023/11/25 02:52:46;;;;;;;4.68;1.48;;;;;;;2.02;100.00;99861.28;5061148;28;20087;-68
2023/11/25 02:55:19;;;;;;;5.95;1.20;;;;;;;2.01;100.00;99864.78;5085206;28;20135;-68
2023/11/25 02:57:49;;;;;;;5.63;1.33;;;;;;;2.03;100.00;99870.84;5077457;28;20127;-67
2023/11/25 03:00:27;;;;;;;5.43;1.58;;;;;;;2.02;100.00;99869.13;5069632;28;20132;-68
2023/11/25 03:03:09;;;;;;;6.38;1.80;;;;;;;2.05;100.00;99861.19;5060292;28;20436;-68
2023/11/25 03:05:38;;;;;;;5.80;1.50;;;;;;;2.05;100.00;99871.66;5071460;28;20138;-69
2023/11/25 03:08:09;;;;;;;6.65;1.67;;;;;;;2.03;100.00;99857.78;5054326;28;20398;-67
2023/11/25 03:10:46;;;;;;;7.05;1.42;;;;;;;1.95;100.00;99849.22;5068151;28;20085;-68
2023/11/25 03:13:16;;;;;;;8.57;1.58;;;;;;;1.97;100.00;99856.16;5065608;28;20048;-68
2023/11/25 03:15:45;;;;;;;7.30;1.55;;;;;;;1.96;100.00;99853.56;5073266;28;20214;-68
2023/11/25 03:18:13;;;;;;;6.22;1.50;;;;;;;1.99;100.00;99858.72;5073363;28;20408;-68
2023/11/25 03:20:41;;;;;;;11.90;1.88;;;;;;;2.03;100.00;99876.94;5067207;28;20049;-67
2023/11/25 03:23:10;;;;;;;4.18;1.77;;;;;;;2.05;100.00;99863.81;5063739;28;20419;-68
2023/11/25 03:25:38;;;;;;;6.68;1.65;;;;;;;2.06;100.00;99865.53;5070820;28;20638;-68
2023/11/25 03:28:10;;;;;;;4.95;1.75;;;;;;;2.08;100.00;99876.81;5074439;28;20045;-69
2023/11/25 03:30:39;;;;;;;7.78;1.95;;;;;;;2.10;100.00;99870.66;5065811;28;20075;-69
2023/11/25 03:33:09;;;;;;;7.30;1.80;;;;;;;2.16;100.00;99861.84;5070900;28;20048;-68
2023/11/25 03:35:37;;;;;;;;;;;;;;;2.25;100.00;99876.47;5072043;28;20106;-68
2023/11/25 03:38:06;;;;;;;6.35;1.67;;;;;;;2.22;100.00;99868.69;5053671;28;19978;-69
2023/11/25 03:40:34;;;;;;;5.80;1.52;;;;;;;2.20;100.00;99875.72;5064521;28;20048;-67
2023/11/25 03:43:02;;;;;;;4.38;1.30;;;;;;;2.20;100.00;99858.28;5058160;28;20072;-67
2023/11/25 03:45:31;;;;;;;11.32;1.60;;;;;;;2.17;100.00;99860.09;5051650;28;20513;-69
2023/11/25 03:48:00;;;;;;;7.35;1.60;;;;;;;2.17;100.00;99865.31;5069426;28;20114;-69
2023/11/25 03:50:29;;;;;;;5.32;1.50;;;;;;;2.20;100.00;99860.03;5051566;28;20086;-69
2023/11/25 03:52:57;;;;;;;9.07;1.58;;;;;;;2.14;100.00;99853.19;5059858;28;20193;-70
2023/11/25 03:55:25;;;;;;;5.32;1.60;;;;;;;2.19;100.00;99867.03;5067912;28;20502;-68
2023/11/25 03:57:55;;;;;;;6.68;1.80;;;;;;;2.15;100.00;99864.50;5071089;28;20060;-70
2023/11/25 04:00:24;;;;;;;6.53;1.88;;;;;;;2.15;100.00;99862.75;5070153;28;20412;-68
2023/11/25 04:02:56;;;;;;;8.38;1.50;;;;;;;2.16;100.00;99864.47;5062376;28;20158;-69
2023/11/25 04:05:24;;;;;;;7.15;2.03;;;;;;;2.11;100.00;99864.56;5076149;28;20094;-69
2023/11/25 04:07:52;;;;;;;13.32;2.28;;;;;;;2.11;100.00;99864.56;5073106;28;20157;-68
2023/11/25 04:10:21;;;;;;;10.95;2.28;;;;;;;2.10;100.00;99868.06;5091473;28;20044;-69
2023/11/25 04:12:52;;;;;;;8.65;2.40;;;;;;;2.15;100.00;99869.72;5074462;28;20055;-68
2023/11/25 04:15:20;;;;;;;6.47;2.20;;;;;;;2.17;100.00;99871.41;5073321;28;20075;-69
2023/11/25 04:17:50;;;;;;;;;;;;;;;2.17;100.00;99884.47;5080860;28;20049;-69
2023/11/25 04:20:27;;;;;;;10.95;3.00;;;;;;;2.21;100.00;99878.25;5090654;28;19927;-69
2023/11/25 04:23:05;;;;;;;9.90;3.85;;;;;;;2.16;100.00;99879.28;5064911;28;20354;-69
2023/11/25 04:25:34;;;;;;;10.05;3.83;;;;;;;2.17;100.00;99899.28;5070678;28;20048;-68
2023/11/25 04:28:06;;;;;;;9.02;3.70;;;;;;;2.11;100.00;99903.72;5072624;28;20048;-69
2023/11/25 04:30:36;;;;;;;8.13;3.70;;;;;;;2.15;100.00;99912.38;5070042;28;20090;-68
2023/11/25 04:33:09;;;;;;;8.18;3.67;;;;;;;2.18;100.00;99906.22;5058955;28;20094;-69
2023/11/25 04:35:39;;;;;;;7.70;3.97;;;;;;;2.17;100.00;99910.59;5073371;28;20055;-68
2023/11/25 04:38:07;;;;;;;7.18;4.00;;;;;;;2.16;100.00;99911.47;5068802;28;20037;-70
2023/11/25 04:40:36;;;;;;;7.85;4.03;;;;;;;2.10;100.00;99917.69;5053025;28;20551;-69
2023/11/25 04:43:04;;;;;;;9.30;3.55;;;;;;;2.11;100.00;99915.94;5058652;28;20055;-67
2023/11/25 04:45:32;;;;;;;9.82;3.95;;;;;;;2.18;100.00;99917.53;5076588;28;20058;-68
2023/11/25 04:48:00;;;;;;;7.10;3.97;;;;;;;2.20;100.00;99926.22;5079512;28;20083;-68
2023/11/25 04:50:30;;;;;;;15.13;4.72;;;;;;;2.23;100.00;99920.03;5079472;28;20052;-68
2023/11/25 04:53:00;;;;;;;10.88;4.65;;;;;;;2.20;100.00;99905.31;5067436;28;20108;-68
2023/11/25 04:55:29;;;;;;;8.60;4.50;;;;;;;2.25;100.00;99908.66;5067621;28;20064;-69
2023/11/25 04:57:57;;;;;;;11.82;5.35;;;;;;;2.27;100.00;99900.81;5075039;28;20099;-69
2023/11/25 05:00:26;;;;;;;7.88;4.15;;;;;;;2.24;100.00;99896.50;5068044;28;20135;-70
2023/11/25 05:02:55;;;;;;;7.63;4.30;;;;;;;2.25;100.00;99898.22;5058472;28;20064;-68
2023/11/25 05:05:26;;;;;;;11.00;4.25;;;;;;;2.28;100.00;99902.53;5069416;28;20036;-69
2023/11/25 05:07:54;;;;;;;7.85;4.47;;;;;;;2.29;100.00;99892.03;5067008;28;20067;-68
2023/11/25 05:10:28;;;;;;;10.90;4.90;;;;;;;2.32;100.00;99894.59;5070670;28;20123;-68
2023/11/25 05:12:57;;;;;;;12.13;5.07;;;;;;;2.35;100.00;99897.16;5061679;28;20078;-68
2023/11/25 05:15:25;;;;;;;7.50;4.60;;;;;;;2.35;100.00;99893.69;5067982;28;20045;-68
2023/11/25 05:17:53;;;;;;;11.02;5.18;;;;;;;2.28;100.00;99897.28;5071438;28;20056;-69
2023/11/25 05:20:21;;;;;;;10.65;5.53;;;;;;;2.32;100.00;99904.19;5069579;28;20043;-69
2023/11/25 05:22:55;;;;;;;15.25;5.93;;;;;;;2.28;100.00;99897.28;5056268;28;20053;-69
2023/11/25 05:25:25;;;;;;;12.60;6.53;;;;;;;2.28;100.00;99889.47;5066571;28;20040;-68
2023/11/25 05:27:53;;;;;;;13.05;6.80;;;;;;;2.22;100.00;99880.00;5068789;28;20076;-68
2023/11/25 05:30:22;;;;;;;15.40;6.68;;;;;;;2.24;100.00;99883.44;5072119;28;20049;-68
2023/11/25 05:32:50;;;;;;;13.00;7.25;;;;;;;2.29;100.00;99867.66;5079771;28;20045;-68
2023/11/25 05:35:20;;;;;;;14.32;7.03;;;;;;;2.30;100.00;99869.38;5071550;28;20137;-68
2023/11/25 05:37:49;;;;;;;16.20;8.30;;;;;;;2.29;100.00;99868.53;5070689;28;20091;-68
2023/11/25 05:40:18;;;;;;;14.57;7.17;;;;;;;2.36;100.00;99875.31;5068498;28;20044;-69
2023/11/25 05:42:53;;;;;;;16.83;7.35;;;;;;;2.35;100.00;99875.38;5065801;28;20048;-68
2023/11/25 05:45:26;;;;;;;16.60;6.95;;;;;;;2.33;100.00;99875.41;5088689;28;20033;-67
2023/11/25 05:47:56;;;;;;;17.98;7.70;;;;;;;2.35;100.00;99868.41;5074838;28;20052;-69
2023/11/25 05:50:24;;;;;;;13.35;7.45;;;;;;;2.37;100.00;99882.28;5088450;28;20057;-69
2023/11/25 05:52:54;;;;;;;17.25;8.32;;;;;;;2.39;100.00;99879.63;5064396;28;20056;-67
2023/11/25 05:55:22;;;;;;;21.70;7.72;;;;;;;2.39;100.00;99880.50;5076193;28;20044;-68
2023/11/25 05:57:53;;;;;;;12.88;6.97;;;;;;;2.41;100.00;99877.84;5072600;28;20119;-68
2023/11/25 06:00:24;;;;;;;14.43;6.93;;;;;;;2.36;100.00;99870.09;5054399;28;20416;-68
2023/11/25 06:02:54;;;;;;;15.30;7.50;;;;;;;2.40;100.00;99883.97;5065908;28;20041;-68
2023/11/25 06:05:23;;;;;;;17.48;7.30;;;;;;;2.41;100.00;99880.47;5073977;28;20041;-68
2023/11/25 06:07:52;;;;;;;16.88;8.23;;;;;;;2.40;100.00;99884.81;5075056;28;20049;-68
2023/11/25 06:10:23;;;;;;;18.13;8.27;;;;;;;2.45;100.00;99884.72;5070652;28;20053;-69
2023/11/25 06:12:53;;;;;;;15.05;6.95;;;;;;;2.43;100.00;99886.50;5065105;28;20049;-68
2023/11/25 06:15:22;;;;;;;17.20;7.73;;;;;;;2.39;100.00;99875.25;5074845;28;20047;-70
2023/11/25 06:17:52;;;;;;;19.60;7.65;;;;;;;2.37;100.00;99877.03;5076732;28;20470;-68
2023/11/25 06:20:24;;;;;;;16.25;7.10;;;;;;;2.40;100.00;99871.75;5081713;28;20520;-68
2023/11/25 06:22:55;;;;;;;23.48;7.45;;;;;;;2.40;100.00;99876.97;5069996;28;20041;-69
2023/11/25 06:25:26;;;;;;;16.70;7.88;;;;;;;2.39;100.00;99879.63;5075222;28;20055;-68
2023/11/25 06:27:55;;;;;;;16.83;6.68;;;;;;;2.34;100.00;99879.75;5076784;28;21097;-68
2023/11/25 06:30:24;;;;;;;23.90;8.02;;;;;;;2.34;100.00;99877.13;5079011;28;20134;-69
2023/11/25 06:32:52;;;;;;;18.67;6.78;;;;;;;2.42;100.00;99882.19;5064603;28;20048;-67
2023/11/25 06:35:23;;;;;;;21.17;6.90;;;;;;;2.42;100.00;99884.78;5084285;28;20036;-68
2023/11/25 06:37:51;;;;;;;18.77;7.40;;;;;;;2.40;100.00;99884.81;5072741;28;20044;-69
2023/11/25 06:40:20;;;;;;;20.38;7.18;;;;;;;2.46;100.00;99882.09;5070799;28;20040;-67
2023/11/25 06:42:48;;;;;;;21.30;7.25;;;;;;;2.47;100.00;99881.19;5063515;28;20120;-68
2023/11/25 06:45:17;;;;;;;18.13;7.40;;;;;;;2.44;100.00;99883.88;5070437;28;20121;-69
2023/11/25 06:47:47;;;;;;;18.38;6.82;;;;;;;2.38;100.00;99883.13;5038856;28;20481;-68
2023/11/25 06:50:16;;;;;;;18.73;7.30;;;;;;;2.36;100.00;99896.22;5083237;28;20289;-68
2023/11/25 06:52:44;;;;;;;18.75;7.38;;;;;;;2.34;100.00;99894.56;5064256;28;20416;-70
2023/11/25 06:55:14;;;;;;;;;;;;;;;2.33;100.00;99905.91;5086512;28;20089;-68
2023/11/25 06:57:42;;;;;;;18.63;7.07;;;;;;;2.32;100.00;99906.78;5073104;28;19937;-69
2023/11/25 07:00:13;;;;;;;26.35;7.63;;;;;;;2.33;100.00;99906.78;5053393;28;20048;-70
2023/11/25 07:02:42;;;;;;;19.80;7.20;;;;;;;2.32;100.00;99905.03;5066276;28;20709;-71
2023/11/25 07:05:13;;;;;;;21.85;7.30;;;;;;;2.38;100.00;99914.47;5066344;28;20045;-69
2023/11/25 07:07:41;;;;;;;14.40;6.95;;;;;;;2.44;100.00;99924.81;5070195;28;20662;-68
2023/11/25 07:10:21;;;;;;;20.70;7.43;;;;;;;2.51;100.00;99921.19;5069790;28;20056;-69
2023/11/25 07:12:50;;;;;;;21.52;7.13;;;;;;;2.56;100.00;99913.22;5067416;28;20491;-68
2023/11/25 07:15:18;;;;;;;22.45;6.80;;;;;;;2.60;100.00;99920.97;5063338;28;20040;-68
2023/11/25 07:17:49;;;;;;;21.23;6.68;;;;;;;2.72;100.00;99917.22;5051345;28;20151;-68
2023/11/25 07:20:19;;;;;;;20.00;6.20;;;;;;;2.77;100.00;99915.38;5071222;28;20557;-69
2023/11/25 07:22:50;;;;;;;;;;;;;;;2.79;100.00;99904.00;5068100;28;20041;-68
2023/11/25 07:25:18;;;;;;;21.08;5.90;;;;;;;2.79;100.00;99910.97;5066721;28;19926;-69
2023/11/25 07:27:47;;;;;;;18.25;5.95;;;;;;;2.82;100.00;99903.06;5054802;28;20060;-69
2023/11/25 07:30:18;;;;;;;23.75;5.63;;;;;;;2.90;100.00;99915.94;5070538;28;20044;-69
2023/11/25 07:32:47;;;;;;;20.95;5.80;;;;;;;2.86;100.00;99903.81;5052926;28;20057;-69
2023/11/25 07:35:17;;;;;;;23.77;6.68;;;;;;;2.91;100.00;99921.13;5081439;28;20213;-69
2023/11/25 07:37:45;;;;;;;17.92;5.57;;;;;;;2.91;100.00;99921.13;5072974;28;20443;-69
2023/11/25 07:40:15;;;;;;;18.38;5.60;;;;;;;3.00;100.00;99920.91;5071724;28;20036;-69
2023/11/25 07:42:45;;;;;;;22.77;5.97;;;;;;;3.08;100.00;99924.22;5069422;28;20050;-69
2023/11/25 07:45:14;;;;;;;19.08;5.55;;;;;;;3.10;100.00;99919.81;5062853;28;20040;-70
2023/11/25 07:47:44;;;;;;;17.15;6.03;;;;;;;3.23;100.00;99919.50;5071705;28;20449;-67
2023/11/25 07:50:16;;;;;;;19.85;5.57;;;;;;;3.32;100.00;99921.88;5065672;28;20187;-68
2023/11/25 07:52:46;;;;;;;15.30;4.72;;;;;;;3.41;100.00;99921.66;5070219;28;20163;-68
2023/11/25 07:55:14;;;;;;;15.75;5.15;;;;;;;3.49;100.00;99920.56;5055780;28;20468;-69
2023/11/25 07:57:42;;;;;;;15.15;5.00;;;;;;;3.58;100.00;99924.72;5073680;28;20049;-69
2023/11/25 08:00:15;;;;;;;13.73;4.70;;;;;;;3.62;100.00;99917.66;5069760;28;20051;-70
2023/11/25 08:02:47;;;;;;;15.85;5.13;;;;;;;3.66;100.00;99927.97;5067605;28;20412;-68
2023/11/25 08:05:22;;;;;;;12.65;4.93;;;;;;;3.69;100.00;99916.56;5063976;28;20045;-68
2023/11/25 08:07:54;;;;;;;13.10;4.35;;;;;;;3.72;100.00;99919.97;5069303;28;20037;-68
2023/11/25 08:10:24;;;;;;;;;;;;;;;3.83;100.00;99919.66;5070229;28;20112;-69
2023/11/25 08:12:52;;;;;;;14.30;4.20;;;;;;;3.85;100.00;99923.13;5051549;28;19953;-69
2023/11/25 08:15:22;;;;;;;16.40;4.90;;;;;;;3.79;100.00;99931.97;5065239;28;20574;-69
2023/11/25 08:17:50;;;;;;;17.70;5.28;;;;;;;3.77;100.00;99938.19;5072201;28;20048;-69
2023/11/25 08:20:20;;;;;;;18.98;5.22;;;;;;;3.76;100.00;99923.38;5070813;28;20053;-69
2023/11/25 08:22:53;;;;;;;18.23;4.60;;;;;;;3.71;100.00;99918.25;5069601;28;20050;-68
2023/11/25 08:25:21;;;;;;;19.85;5.65;;;;;;;3.76;100.00;99921.63;5064579;28;20519;-68
2023/11/25 08:27:51;;;;;;;19.58;5.00;;;;;;;3.80;100.00;99923.22;5075237;28;20110;-71
2023/11/25 08:30:20;;;;;;;19.17;4.78;;;;;;;3.96;100.00;99928.03;5064652;28;20131;-68
2023/11/25 08:32:49;;;;;;;18.80;5.03;;;;;;;4.03;100.00;99920.00;5070292;28;20073;-67
2023/11/25 08:35:17;;;;;;;22.45;4.78;;;;;;;4.07;100.00;99923.41;5063469;28;20044;-69
2023/11/25 08:37:47;;;;;;;15.65;3.40;;;;;;;3.96;100.00;99920.19;5078590;28;20097;-69
2023/11/25 08:40:21;;;;;;;17.95;4.15;;;;;;;3.90;100.00;99913.38;5075471;28;20032;-68
2023/11/25 08:42:50;;;;;;;14.32;3.75;;;;;;;3.87;100.00;99921.31;5044708;28;20045;-69
2023/11/25 08:45:20;;;;;;;17.30;4.45;;;;;;;3.86;100.00;99906.50;5062303;28;20033;-68
2023/11/25 08:47:49;;;;;;;13.45;3.85;;;;;;;3.93;100.00;99915.91;5088424;28;20135;-68
2023/11/25 08:50:18;;;;;;;15.75;3.60;;;;;;;3.96;100.00;99912.34;5064782;28;20055;-69
2023/11/25 08:52:48;;;;;;;13.82;3.28;;;;;;;3.96;100.00;99918.44;5066223;28;20507;-69
2023/11/25 08:55:19;;;;;;;10.98;3.22;;;;;;;4.00;100.00;99913.97;5078378;28;20052;-69
2023/11/25 08:57:49;;;;;;;11.27;2.40;;;;;;;4.06;100.00;99911.19;5070446;28;20041;-68
2023/11/25 09:00:22;;;;;;;10.43;2.80;;;;;;;4.05;100.00;99914.72;5067893;28;20513;-69
2023/11/25 09:02:54;;;;;;;13.05;2.55;;;;;;;4.00;100.00;99898.25;5069448;28;20032;-68
2023/11/25 09:05:25;;;;;;;10.00;2.65;;;;;;;4.04;100.00;99894.66;5063604;28;20041;-70
2023/11/25 09:07:55;;;;;;;10.77;2.38;;;;;;;4.02;100.00;99894.69;5071964;28;20037;-68
2023/11/25 09:10:31;;;;;;;15.57;3.35;;;;;;;3.87;100.00;99898.59;5075887;28;20032;-69
2023/11/25 09:13:00;;;;;;;15.30;2.92;;;;;;;3.90;100.00;99907.28;5080867;28;20051;-68
2023/11/25 09:15:28;;;;;;;15.73;3.00;;;;;;;3.91;100.00;99911.63;5070386;28;20078;-68
2023/11/25 09:18:00;;;;;;;12.63;2.63;;;;;;;3.84;100.00;99924.88;5072071;28;20048;-70
2023/11/25 09:20:35;;;;;;;11.18;2.50;;;;;;;3.86;100.00;99924.84;5033781;28;20045;-69
2023/11/25 09:23:03;;;;;;;11.82;2.72;;;;;;;3.83;100.00;99902.19;5032277;28;20056;-71
2023/11/25 09:25:34;;;;;;;16.50;2.70;;;;;;;3.90;100.00;99917.75;5023938;28;20045;-68
2023/11/25 09:28:08;;;;;;;17.42;2.88;;;;;;;3.89;100.00;99914.28;5033857;28;20159;-67
2023/11/25 09:30:37;;;;;;;12.60;2.78;;;;;;;3.96;100.00;99921.06;5032587;28;20049;-67
2023/11/25 09:33:08;;;;;;;13.73;3.00;;;;;;;4.01;100.00;99923.56;5031270;28;20030;-69
2023/11/25 09:35:38;;;;;;;18.25;3.13;;;;;;;4.00;100.00;99922.69;5029190;28;20107;-69
2023/11/25 09:38:07;;;;;;;13.05;2.30;;;;;;;4.03;100.00;99916.50;5033262;28;20640;-68
2023/11/25 09:40:39;;;;;;;15.90;2.47;;;;;;;4.22;100.00;99907.22;5032593;28;20127;-70
2023/11/25 09:43:09;;;;;;;19.10;3.95;;;;;;;4.16;100.00;99908.25;5033975;28;20049;-70
2023/11/25 09:45:40;;;;;;;12.80;2.70;;;;;;;4.12;100.00;99900.53;5027713;28;20050;-68
2023/11/25 09:48:08;;;;;;;12.90;3.28;;;;;;;4.24;100.00;99902.81;5033477;28;20104;-69
2023/11/25 09:50:38;;;;;;;16.17;3.20;;;;;;;4.38;100.00;99908.50;5048897;28;20502;-68
2023/11/25 09:53:13;;;;;;;20.50;3.38;;;;;;;4.47;100.00;99896.88;5037335;28;20048;-68
2023/11/25 09:55:58;;;;;;;14.18;3.03;;;;;;;4.55;100.00;99905.38;5028595;28;20090;-68
2023/11/25 09:58:30;;;;;;;14.75;3.10;;;;;;;4.54;100.00;99903.66;5028440;28;20053;-69
2023/11/25 10:01:00;;;;;;;13.20;2.85;;;;;;;4.59;100.00;99901.75;5032848;28;20464;-67
2023/11/25 10:03:31;;;;;;;;;;;;;;;4.54;100.00;99912.38;5033156;28;20113;-65
2023/11/25 10:06:01;;;;;;;14.43;3.22;;;;;;;4.34;100.00;99916.50;5038845;28;20015;-67
2023/11/25 10:08:29;;;;;;;11.95;2.47;;;;;;;4.33;100.00;99907.78;5030619;28;20050;-67
2023/11/25 10:11:05;;;;;;;17.73;3.00;;;;;;;4.36;100.00;99901.59;5017403;28;20498;-68
2023/11/25 10:13:36;;;;;;;15.00;2.72;;;;;;;4.52;100.00;99890.59;5014315;28;20150;-66
2023/11/25 10:16:05;;;;;;;13.97;2.57;;;;;;;4.61;100.00;99883.34;5038431;28;20502;-68
2023/11/25 10:18:38;;;;;;;16.55;3.35;;;;;;;4.70;100.00;99891.81;5041314;28;20056;-67
2023/11/25 10:21:07;;;;;;;16.70;2.63;;;;;;;4.73;100.00;99882.94;5078940;28;20044;-70
2023/11/25 10:23:37;;;;;;;15.52;3.13;;;;;;;4.47;100.00;99887.25;5072965;28;20525;-66
2023/11/25 10:26:08;;;;;;;13.80;2.78;;;;;;;4.18;100.00;99880.25;5071994;28;20344;-66
2023/11/25 10:28:36;;;;;;;16.73;2.80;;;;;;;4.16;100.00;99886.44;5075831;28;20044;-67
2023/11/25 10:31:08;;;;;;;13.48;3.05;;;;;;;4.07;100.00;99871.84;5079465;28;20063;-70
2023/11/25 10:33:40;;;;;;;20.40;2.95;;;;;;;4.11;100.00;99878.69;5068202;28;20041;-68
2023/11/25 10:36:10;;;;;;;14.15;2.53;;;;;;;4.10;100.00;99878.75;5063150;28;20046;-68
2023/11/25 10:38:43;;;;;;;19.30;2.92;;;;;;;4.09;100.00;99875.25;5073808;28;20109;-68
2023/11/25 10:41:14;;;;;;;15.38;2.85;;;;;;;4.12;100.00;99864.69;5073656;28;20524;-68
2023/11/25 10:43:44;;;;;;;12.43;2.90;;;;;;;4.12;100.00;99861.22;5074812;28;20626;-67
2023/11/25 10:46:13;;;;;;;18.00;3.28;;;;;;;4.12;100.00;99858.59;5064206;28;20468;-69
2023/11/25 10:48:42;;;;;;;12.43;2.45;;;;;;;4.09;100.00;99861.34;5086828;28;20044;-68
2023/11/25 10:51:12;;;;;;;17.65;2.60;;;;;;;4.08;100.00;99852.59;5039771;28;20075;-68
2023/11/25 10:53:46;;;;;;;13.52;2.63;;;;;;;4.07;100.00;99852.66;5071650;28;20044;-69
2023/11/25 10:56:20;;;;;;;15.90;3.92;;;;;;;4.00;100.00;99845.84;5067276;28;20072;-69
2023/11/25 10:58:51;;;;;;;15.82;2.85;;;;;;;3.99;100.00;99842.38;5074319;28;20059;-68
2023/11/25 11:01:21;;;;;;;11.10;2.55;;;;;;;3.94;100.00;99832.94;5080952;28;20063;-67
2023/11/25 11:03:59;;;;;;;14.88;3.00;;;;;;;3.93;100.00;99837.34;5072465;28;20048;-67
2023/11/25 11:06:31;;;;;;;7.80;2.00;;;;;;;3.96;100.00;99837.22;5068872;28;20032;-68
2023/11/25 11:09:03;;;;;;;11.77;3.15;;;;;;;4.07;100.00;99831.69;5076317;28;20043;-67
2023/11/25 11:11:46;;;;;;;12.93;2.42;;;;;;;4.20;100.00;99831.28;5074232;28;20052;-67
2023/11/25 11:14:17;;;;;;;13.15;2.30;;;;;;;4.24;100.00;99816.31;5083586;28;20059;-68
2023/11/25 11:16:53;;;;;;;14.55;3.38;;;;;;;4.28;100.00;99812.69;5062944;28;20055;-68
2023/11/25 11:19:28;;;;;;;11.65;2.08;;;;;;;4.25;100.00;99812.78;5065361;28;20053;-69
2023/11/25 11:22:05;;;;;;;6.72;1.83;;;;;;;4.24;100.00;99805.84;5074248;28;20044;-69
2023/11/25 11:27:44;;;;;;;9.10;2.10;;;;;;;4.19;100.00;99797.25;5072550;28;20094;-68
2023/11/25 11:30:19;;;;;;;7.68;2.03;;;;;;;4.18;100.00;99791.16;5072922;28;20048;-67
2023/11/25 11:32:49;;;;;;;6.35;1.83;;;;;;;4.30;100.00;99791.66;5077090;28;20416;-69
2023/11/25 11:35:20;;;;;;;10.35;2.50;;;;;;;4.25;100.00;99783.94;5066582;28;20052;-68
2023/11/25 11:37:50;;;;;;;7.25;1.98;;;;;;;4.21;100.00;99783.22;5062673;28;20052;-67
2023/11/25 11:40:22;;;;;;;10.90;3.08;;;;;;;4.27;100.00;99779.50;5072043;28;20040;-68
2023/11/25 11:42:57;;;;;;;6.25;2.03;;;;;;;4.37;100.00;99773.09;5083789;28;20098;-69
2023/11/25 11:45:53;;;;;;;7.70;2.25;;;;;;;4.56;100.00;99766.34;5062808;28;20055;-68
2023/11/25 11:48:26;;;;;;;10.50;2.85;;;;;;;4.65;100.00;99767.81;5070027;28;20408;-69